sensor_id;sensor_type;location;lat;lon;timestamp;pressure;altitude;pressure_sealevel;temperature;humidity
79378;BME280;68959;53.132;17.984;2023-05-18T09:57:19;102224.04;;;30.40;17.77
79378;BME280;68959;53.132;17.984;2023-05-18T09:59:54;102222.35;;;30.29;17.61
79378;BME280;68959;53.132;17.984;2023-05-18T10:02:23;102225.33;;;30.20;18.09
79378;BME280;68959;53.132;17.984;2023-05-18T10:04:51;102221.80;;;30.33;17.89
79378;BME280;68959;53.132;17.984;2023-05-18T10:07:17;102211.50;;;30.79;17.07
79378;BME280;68959;53.132;17.984;2023-05-18T10:09:44;102206.22;;;31.32;17.18
79378;BME280;68959;53.132;17.984;2023-05-18T10:12:13;102205.45;;;31.97;16.24
79378;BME280;68959;53.132;17.984;2023-05-18T10:14:42;102205.55;;;32.37;16.05
79378;BME280;68959;53.132;17.984;2023-05-18T10:17:13;102201.70;;;32.61;15.63
79378;BME280;68959;53.132;17.984;2023-05-18T10:19:41;102198.64;;;32.76;15.26
79378;BME280;68959;53.132;17.984;2023-05-18T10:22:08;102195.70;;;32.71;15.06
79378;BME280;68959;53.132;17.984;2023-05-18T10:24:41;102198.83;;;33.08;15.18
79378;BME280;68959;53.132;17.984;2023-05-18T10:27:09;102192.55;;;33.28;14.75
79378;BME280;68959;53.132;17.984;2023-05-18T10:29:36;102194.33;;;33.50;14.57
79378;BME280;68959;53.132;17.984;2023-05-18T10:32:03;102191.68;;;33.61;14.71
79378;BME280;68959;53.132;17.984;2023-05-18T10:34:31;102188.67;;;34.04;14.42
79378;BME280;68959;53.132;17.984;2023-05-18T10:37:00;102190.13;;;33.86;14.11
79378;BME280;68959;53.132;17.984;2023-05-18T10:39:35;102191.27;;;33.53;14.43
79378;BME280;68959;53.132;17.984;2023-05-18T10:42:06;102190.30;;;33.24;14.44
79378;BME280;68959;53.132;17.984;2023-05-18T10:44:34;102201.56;;;31.39;15.60
79378;BME280;68959;53.132;17.984;2023-05-18T10:47:04;102202.86;;;30.15;16.28
79378;BME280;68959;53.132;17.984;2023-05-18T10:49:31;102199.78;;;31.38;15.74
79378;BME280;68959;53.132;17.984;2023-05-18T10:51:59;102190.73;;;32.11;14.87
79378;BME280;68959;53.132;17.984;2023-05-18T10:54:26;102191.31;;;32.36;14.88
79378;BME280;68959;53.132;17.984;2023-05-18T10:56:53;102190.27;;;32.92;14.65
79378;BME280;68959;53.132;17.984;2023-05-18T10:59:20;102190.13;;;33.12;14.51
79378;BME280;68959;53.132;17.984;2023-05-18T11:01:51;102195.79;;;32.74;14.64
79378;BME280;68959;53.132;17.984;2023-05-18T11:04:26;102199.55;;;32.16;14.92
79378;BME280;68959;53.132;17.984;2023-05-18T15:01:26;102115.27;;;30.37;15.91
79378;BME280;68959;53.132;17.984;2023-05-18T15:03:53;102118.73;;;29.95;16.15
79378;BME280;68959;53.132;17.984;2023-05-18T15:06:20;102113.51;;;29.82;16.31
79378;BME280;68959;53.132;17.984;2023-05-18T15:08:47;102118.79;;;29.63;16.41
79378;BME280;68959;53.132;17.984;2023-05-18T15:11:14;102114.45;;;29.12;16.88
79378;BME280;68959;53.132;17.984;2023-05-18T15:13:40;102119.41;;;28.78;17.10
79378;BME280;68959;53.132;17.984;2023-05-18T15:16:08;102118.73;;;27.99;17.66
79378;BME280;68959;53.132;17.984;2023-05-18T15:18:35;102121.73;;;27.20;17.95
79378;BME280;68959;53.132;17.984;2023-05-18T15:21:01;102126.43;;;26.60;18.59
79378;BME280;68959;53.132;17.984;2023-05-18T15:23:28;102120.94;;;26.12;19.08
79378;BME280;68959;53.132;17.984;2023-05-18T15:25:55;102125.45;;;25.92;19.28
79378;BME280;68959;53.132;17.984;2023-05-18T15:28:22;102126.95;;;26.28;19.47
79378;BME280;68959;53.132;17.984;2023-05-18T15:30:48;102124.56;;;26.49;19.55
79378;BME280;68959;53.132;17.984;2023-05-18T15:33:15;102123.52;;;26.59;19.34
79378;BME280;68959;53.132;17.984;2023-05-18T15:35:42;102128.86;;;26.41;19.75
79378;BME280;68959;53.132;17.984;2023-05-18T15:38:09;102128.17;;;25.87;20.11
79378;BME280;68959;53.132;17.984;2023-05-18T15:40:35;102127.98;;;25.27;20.41
79378;BME280;68959;53.132;17.984;2023-05-18T15:43:02;102130.80;;;25.21;20.54
79378;BME280;68959;53.132;17.984;2023-05-18T15:45:29;102125.79;;;24.91;21.05
79378;BME280;68959;53.132;17.984;2023-05-18T15:47:55;102127.80;;;24.82;21.15
79378;BME280;68959;53.132;17.984;2023-05-18T15:50:22;102128.82;;;25.31;20.94
79378;BME280;68959;53.132;17.984;2023-05-18T15:52:49;102131.70;;;25.66;20.72
79378;BME280;68959;53.132;17.984;2023-05-18T15:55:16;102130.41;;;25.73;20.57
79378;BME280;68959;53.132;17.984;2023-05-18T15:57:43;102131.20;;;25.48;20.95
79378;BME280;68959;53.132;17.984;2023-05-18T16:00:10;102132.61;;;25.02;21.50
79378;BME280;68959;53.132;17.984;2023-05-18T16:02:40;102133.67;;;24.53;21.80
79378;BME280;68959;53.132;17.984;2023-05-18T16:05:07;102127.15;;;24.50;22.00
79378;BME280;68959;53.132;17.984;2023-05-18T16:07:33;102128.24;;;24.64;22.07
79378;BME280;68959;53.132;17.984;2023-05-18T16:10:00;102132.02;;;24.70;22.05
79378;BME280;68959;53.132;17.984;2023-05-18T16:12:27;102133.98;;;24.86;21.97
79378;BME280;68959;53.132;17.984;2023-05-18T16:14:54;102132.98;;;25.11;21.66
79378;BME280;68959;53.132;17.984;2023-05-18T16:17:20;102130.68;;;25.17;21.72
79378;BME280;68959;53.132;17.984;2023-05-18T16:19:47;102131.06;;;25.09;21.64
79378;BME280;68959;53.132;17.984;2023-05-18T16:22:13;102132.31;;;24.44;22.25
79378;BME280;68959;53.132;17.984;2023-05-18T16:24:40;102133.29;;;24.15;22.76
79378;BME280;68959;53.132;17.984;2023-05-18T16:27:07;102129.80;;;24.10;22.83
79378;BME280;68959;53.132;17.984;2023-05-18T16:29:33;102135.29;;;24.10;23.05
79378;BME280;68959;53.132;17.984;2023-05-18T16:32:00;102132.83;;;24.05;23.02
79378;BME280;68959;53.132;17.984;2023-05-18T16:34:27;102129.83;;;23.99;23.13
79378;BME280;68959;53.132;17.984;2023-05-18T16:36:53;102133.25;;;23.87;23.12
79378;BME280;68959;53.132;17.984;2023-05-18T16:39:21;102137.64;;;23.51;23.56
79378;BME280;68959;53.132;17.984;2023-05-18T16:41:48;102136.13;;;23.13;24.00
79378;BME280;68959;53.132;17.984;2023-05-18T16:44:14;102134.05;;;22.71;24.75
79378;BME280;68959;53.132;17.984;2023-05-18T16:46:41;102132.84;;;22.24;25.05
79378;BME280;68959;53.132;17.984;2023-05-18T16:49:08;102140.41;;;21.89;25.59
79378;BME280;68959;53.132;17.984;2023-05-18T16:51:34;102136.58;;;21.81;26.01
79378;BME280;68959;53.132;17.984;2023-05-18T16:54:01;102140.58;;;21.72;26.14
79378;BME280;68959;53.132;17.984;2023-05-18T16:56:28;102144.33;;;21.68;26.07
79378;BME280;68959;53.132;17.984;2023-05-18T16:58:55;102146.95;;;21.63;26.44
79378;BME280;68959;53.132;17.984;2023-05-18T17:01:21;102142.73;;;21.46;26.66
79378;BME280;68959;53.132;17.984;2023-05-18T17:03:48;102147.61;;;21.35;26.92
79378;BME280;68959;53.132;17.984;2023-05-18T17:06:15;102144.77;;;21.25;26.91
79378;BME280;68959;53.132;17.984;2023-05-18T17:08:42;102145.84;;;21.18;27.38
79378;BME280;68959;53.132;17.984;2023-05-18T17:11:10;102147.12;;;21.09;27.54
79378;BME280;68959;53.132;17.984;2023-05-18T17:13:37;102151.27;;;21.02;27.78
79378;BME280;68959;53.132;17.984;2023-05-18T17:16:04;102156.46;;;20.92;27.80
79378;BME280;68959;53.132;17.984;2023-05-18T17:18:31;102155.01;;;20.78;28.21
79378;BME280;68959;53.132;17.984;2023-05-18T17:20:58;102157.91;;;20.57;28.44
79378;BME280;68959;53.132;17.984;2023-05-18T17:23:24;102160.38;;;20.42;28.64
79378;BME280;68959;53.132;17.984;2023-05-18T17:25:51;102161.67;;;20.17;28.94
79378;BME280;68959;53.132;17.984;2023-05-18T17:28:18;102162.70;;;19.93;29.27
79378;BME280;68959;53.132;17.984;2023-05-18T17:30:44;102162.30;;;19.71;29.52
79378;BME280;68959;53.132;17.984;2023-05-18T17:33:11;102169.26;;;19.51;29.65
79378;BME280;68959;53.132;17.984;2023-05-18T17:35:38;102169.26;;;19.39;30.23
79378;BME280;68959;53.132;17.984;2023-05-18T17:38:04;102169.59;;;19.25;30.49
79378;BME280;68959;53.132;17.984;2023-05-18T17:40:31;102167.32;;;19.10;30.79
79378;BME280;68959;53.132;17.984;2023-05-18T17:42:58;102171.70;;;18.90;31.13
79378;BME280;68959;53.132;17.984;2023-05-18T17:45:25;102173.41;;;18.73;31.31
79378;BME280;68959;53.132;17.984;2023-05-18T17:47:51;102176.73;;;18.63;31.99
79378;BME280;68959;53.132;17.984;2023-05-18T17:50:18;102184.84;;;18.44;32.21
79378;BME280;68959;53.132;17.984;2023-05-18T17:52:45;102182.61;;;18.29;32.61
79378;BME280;68959;53.132;17.984;2023-05-18T17:55:11;102188.05;;;18.15;32.83
79378;BME280;68959;53.132;17.984;2023-05-18T17:57:38;102192.17;;;17.95;33.40
79378;BME280;68959;53.132;17.984;2023-05-18T18:00:12;102192.42;;;17.72;33.53
79378;BME280;68959;53.132;17.984;2023-05-18T18:02:39;102196.83;;;17.50;33.99
79378;BME280;68959;53.132;17.984;2023-05-18T18:05:09;102192.41;;;17.29;34.68
79378;BME280;68959;53.132;17.984;2023-05-18T18:07:36;102194.39;;;17.09;34.92
79378;BME280;68959;53.132;17.984;2023-05-18T18:10:05;102200.48;;;16.97;35.09
79378;BME280;68959;53.132;17.984;2023-05-18T18:12:32;102201.30;;;16.82;35.83
79378;BME280;68959;53.132;17.984;2023-05-18T18:14:59;102203.99;;;16.59;36.23
79378;BME280;68959;53.132;17.984;2023-05-18T18:17:26;102206.49;;;16.41;36.59
79378;BME280;68959;53.132;17.984;2023-05-18T18:19:54;102210.06;;;16.22;37.14
79378;BME280;68959;53.132;17.984;2023-05-18T18:22:21;102210.39;;;16.04;37.84
79378;BME280;68959;53.132;17.984;2023-05-18T18:24:48;102213.13;;;15.86;38.11
79378;BME280;68959;53.132;17.984;2023-05-18T18:27:15;102212.95;;;15.71;38.00
79378;BME280;68959;53.132;17.984;2023-05-18T18:29:45;102218.92;;;15.57;38.47
79378;BME280;68959;53.132;17.984;2023-05-18T18:32:11;102221.17;;;15.45;38.54
79378;BME280;68959;53.132;17.984;2023-05-18T18:34:38;102220.38;;;15.31;39.12
79378;BME280;68959;53.132;17.984;2023-05-18T18:37:05;102223.06;;;15.17;39.26
79378;BME280;68959;53.132;17.984;2023-05-18T18:39:32;102228.82;;;15.05;39.62
79378;BME280;68959;53.132;17.984;2023-05-18T18:42:00;102231.14;;;14.93;39.76
79378;BME280;68959;53.132;17.984;2023-05-18T18:44:27;102231.52;;;14.79;40.59
79378;BME280;68959;53.132;17.984;2023-05-18T18:46:54;102238.54;;;14.68;40.16
79378;BME280;68959;53.132;17.984;2023-05-18T18:49:21;102240.07;;;14.56;40.70
79378;BME280;68959;53.132;17.984;2023-05-18T18:51:47;102242.40;;;14.45;40.64
79378;BME280;68959;53.132;17.984;2023-05-18T18:54:14;102245.16;;;14.35;40.98
79378;BME280;68959;53.132;17.984;2023-05-18T18:56:41;102245.89;;;14.24;41.02
79378;BME280;68959;53.132;17.984;2023-05-18T18:59:09;102251.90;;;14.15;41.38
79378;BME280;68959;53.132;17.984;2023-05-18T19:01:36;102253.66;;;14.04;42.06
79378;BME280;68959;53.132;17.984;2023-05-18T19:04:03;102254.87;;;13.92;41.87
79378;BME280;68959;53.132;17.984;2023-05-18T19:06:32;102258.00;;;13.86;42.06
79378;BME280;68959;53.132;17.984;2023-05-18T19:09:00;102259.73;;;13.74;42.13
79378;BME280;68959;53.132;17.984;2023-05-18T19:11:27;102266.04;;;13.65;42.39
79378;BME280;68959;53.132;17.984;2023-05-18T19:13:53;102267.52;;;13.59;42.71
79378;BME280;68959;53.132;17.984;2023-05-18T19:16:21;102270.47;;;13.52;42.60
79378;BME280;68959;53.132;17.984;2023-05-18T19:18:48;102270.67;;;13.44;43.34
79378;BME280;68959;53.132;17.984;2023-05-18T19:21:15;102271.65;;;13.34;43.05
79378;BME280;68959;53.132;17.984;2023-05-18T19:23:42;102273.30;;;13.27;43.17
79378;BME280;68959;53.132;17.984;2023-05-18T19:26:08;102273.32;;;13.17;43.54
79378;BME280;68959;53.132;17.984;2023-05-18T19:28:35;102277.73;;;13.10;43.35
79378;BME280;68959;53.132;17.984;2023-05-18T19:31:02;102280.58;;;13.02;43.56
79378;BME280;68959;53.132;17.984;2023-05-18T19:33:29;102277.56;;;12.95;43.73
79378;BME280;68959;53.132;17.984;2023-05-18T19:35:56;102282.05;;;12.89;43.97
79378;BME280;68959;53.132;17.984;2023-05-18T19:38:23;102281.61;;;12.83;44.15
79378;BME280;68959;53.132;17.984;2023-05-18T19:40:49;102287.04;;;12.77;44.06
79378;BME280;68959;53.132;17.984;2023-05-18T19:43:19;102286.23;;;12.72;44.20
79378;BME280;68959;53.132;17.984;2023-05-18T19:45:49;102285.91;;;12.65;44.42
79378;BME280;68959;53.132;17.984;2023-05-18T19:48:16;102284.20;;;12.59;44.60
79378;BME280;68959;53.132;17.984;2023-05-18T19:50:43;102289.19;;;12.53;44.82
79378;BME280;68959;53.132;17.984;2023-05-18T19:53:10;102288.35;;;12.45;44.91
79378;BME280;68959;53.132;17.984;2023-05-18T19:55:36;102294.02;;;12.40;45.00
79378;BME280;68959;53.132;17.984;2023-05-18T19:58:03;102294.82;;;12.36;45.32
79378;BME280;68959;53.132;17.984;2023-05-18T20:00:29;102296.66;;;12.31;45.39
79378;BME280;68959;53.132;17.984;2023-05-18T20:02:56;102294.45;;;12.27;45.54
79378;BME280;68959;53.132;17.984;2023-05-18T20:05:23;102300.26;;;12.23;45.39
79378;BME280;68959;53.132;17.984;2023-05-18T20:07:50;102307.19;;;12.18;45.79
79378;BME280;68959;53.132;17.984;2023-05-18T20:10:17;102308.84;;;12.12;46.02
79378;BME280;68959;53.132;17.984;2023-05-18T20:12:44;102312.27;;;12.07;46.03
79378;BME280;68959;53.132;17.984;2023-05-18T20:15:11;102315.39;;;12.02;46.19
79378;BME280;68959;53.132;17.984;2023-05-18T20:17:39;102318.84;;;11.98;46.30
79378;BME280;68959;53.132;17.984;2023-05-18T20:20:07;102319.80;;;11.92;46.20
79378;BME280;68959;53.132;17.984;2023-05-18T20:22:34;102321.07;;;11.89;46.50
79378;BME280;68959;53.132;17.984;2023-05-18T20:25:00;102326.80;;;11.85;46.69
79378;BME280;68959;53.132;17.984;2023-05-18T20:27:30;102331.23;;;11.81;46.52
